Time;durP1;ratioP1;P1;durP2;ratioP2;P2;SDS_P1;SDS_P2;PMS_P1;PMS_P2;Temp;Humidity;BMP_temperature;BMP_pressure;BME280_temperature;BME280_humidity;BME280_pressure;Samples;Min_cycle;Max_cycle;Signal;HPM_P1;HPM_P2
2024/01/18 00:00:07;;;;;;;13.38;3.67;;;;;;;;;;6221694;22;20050;-41
2024/01/18 00:02:35;;;;;;;12.13;3.72;;;;;;;;;;6216526;22;20015;-41
2024/01/18 00:05:06;;;;;;;14.82;4.03;;;;;;;;;;6269497;22;20046;-41
2024/01/18 00:07:33;;;;;;;10.87;3.60;;;;;;;;;;6251117;22;20015;-42
2024/01/18 00:10:01;;;;;;;12.07;3.83;;;;;;;;;;6267559;22;20064;-40
2024/01/18 00:12:29;;;;;;;12.15;3.53;;;;;;;;;;6227744;22;20024;-41
2024/01/18 00:15:04;;;;;;;11.32;4.35;;;;;;;;;;6265878;22;20682;-42
2024/01/18 00:17:37;;;;;;;18.98;3.90;;;;;;;;;;6271504;22;20022;-41
2024/01/18 00:20:07;;;;;;;11.97;3.93;;;;;;;;;;6257254;22;20022;-42
2024/01/18 00:22:35;;;;;;;8.63;3.35;;;;;;;;;;6257189;22;20022;-41
2024/01/18 00:25:03;;;;;;;11.20;4.10;;;;;;;;;;6253886;22;20033;-42
2024/01/18 00:27:30;;;;;;;14.27;4.72;;;;;;;;;;6261686;22;20341;-41
2024/01/18 00:29:58;;;;;;;13.30;4.10;;;;;;;;;;6253832;22;20035;-41
2024/01/18 00:32:26;;;;;;;14.20;4.30;;;;;;;;;;6262837;22;20019;-42
2024/01/18 00:34:54;;;;;;;10.57;3.75;;;;;;;;;;6249875;22;20020;-41
2024/01/18 00:37:24;;;;;;;8.82;3.45;;;;;;;;;;6266265;22;20018;-41
2024/01/18 00:39:51;;;;;;;12.75;4.30;;;;;;;;;;6246977;22;20443;-41
2024/01/18 00:42:19;;;;;;;10.32;3.17;;;;;;;;;;6260581;22;20026;-41
2024/01/18 00:44:47;;;;;;;14.37;4.87;;;;;;;;;;6260798;22;20104;-45
2024/01/18 00:47:15;;;;;;;12.50;4.03;;;;;;;;;;6252119;22;20015;-41
2024/01/18 00:49:43;;;;;;;13.80;4.22;;;;;;;;;;6266981;22;20023;-42
2024/01/18 00:52:11;;;;;;;11.80;3.75;;;;;;;;;;6209586;22;20662;-42
2024/01/18 00:54:40;;;;;;;12.45;3.42;;;;;;;;;;6260788;22;20015;-41
2024/01/18 00:57:08;;;;;;;13.07;4.37;;;;;;;;;;6250499;22;20475;-42
2024/01/18 00:59:36;;;;;;;11.65;3.65;;;;;;;;;;6262223;22;20019;-44
2024/01/18 01:02:08;;;;;;;10.40;3.88;;;;;;;;;;6263963;22;20015;-41
2024/01/18 01:04:37;;;;;;;12.02;3.80;;;;;;;;;;6259736;22;20019;-41
2024/01/18 01:07:05;;;;;;;12.10;4.00;;;;;;;;;;6250515;22;20065;-42
2024/01/18 01:09:33;;;;;;;13.43;4.07;;;;;;;;;;6269933;22;20019;-43
2024/01/18 01:12:02;;;;;;;10.93;3.33;;;;;;;;;;6257563;22;20391;-42
2024/01/18 01:14:30;;;;;;;12.23;4.10;;;;;;;;;;6271163;22;20207;-42
2024/01/18 01:16:58;;;;;;;8.73;3.53;;;;;;;;;;6238621;22;20049;-42
2024/01/18 01:19:26;;;;;;;9.15;3.65;;;;;;;;;;6268663;22;20020;-45
2024/01/18 01:21:53;;;;;;;12.10;4.30;;;;;;;;;;6256015;22;20102;-41
2024/01/18 01:24:21;;;;;;;11.98;3.92;;;;;;;;;;6279251;22;20026;-43
2024/01/18 01:26:53;;;;;;;12.93;4.47;;;;;;;;;;6267230;22;20896;-41
2024/01/18 01:29:23;;;;;;;12.07;4.03;;;;;;;;;;6257038;22;20023;-41
2024/01/18 01:31:51;;;;;;;12.52;4.18;;;;;;;;;;6271220;22;20026;-41
2024/01/18 01:34:19;;;;;;;14.37;4.83;;;;;;;;;;6260468;22;20019;-41
2024/01/18 01:36:47;;;;;;;13.63;4.50;;;;;;;;;;6271812;22;20023;-40
2024/01/18 01:39:15;;;;;;;13.15;4.28;;;;;;;;;;6247555;22;20546;-41
2024/01/18 01:41:43;;;;;;;13.30;4.68;;;;;;;;;;6243813;22;20389;-42
2024/01/18 01:44:11;;;;;;;12.63;4.25;;;;;;;;;;6262639;22;20618;-42
2024/01/18 01:46:40;;;;;;;13.20;4.80;;;;;;;;;;6266361;22;20021;-41
2024/01/18 01:49:08;;;;;;;12.10;4.70;;;;;;;;;;6264060;22;20019;-41
2024/01/18 01:52:00;;;;;;;11.18;4.15;;;;;;;;;;6232087;22;20093;-42
2024/01/18 01:54:29;;;;;;;11.27;4.50;;;;;;;;;;6268653;22;20015;-41
2024/01/18 01:56:58;;;;;;;15.20;4.93;;;;;;;;;;6258527;22;20023;-41
2024/01/18 01:59:26;;;;;;;13.73;4.77;;;;;;;;;;6265976;22;20030;-42
2024/01/18 02:01:55;;;;;;;12.35;4.93;;;;;;;;;;6260966;22;20023;-41
2024/01/18 02:04:23;;;;;;;14.07;5.13;;;;;;;;;;6263953;22;20023;-41
2024/01/18 02:06:51;;;;;;;13.85;4.63;;;;;;;;;;6266190;22;20424;-41
2024/01/18 02:09:19;;;;;;;12.07;4.55;;;;;;;;;;6254421;22;20041;-42
2024/01/18 02:11:50;;;;;;;12.13;4.50;;;;;;;;;;6267550;22;20011;-42
2024/01/18 02:14:18;;;;;;;12.48;4.35;;;;;;;;;;6273294;22;20019;-41
2024/01/18 02:16:46;;;;;;;11.60;4.15;;;;;;;;;;6261897;22;20317;-40
2024/01/18 02:19:15;;;;;;;12.73;5.07;;;;;;;;;;6267824;22;20549;-42
2024/01/18 02:21:43;;;;;;;12.00;4.93;;;;;;;;;;6265218;22;20018;-41
2024/01/18 02:24:15;;;;;;;14.03;5.30;;;;;;;;;;6271656;22;20023;-41
2024/01/18 02:26:45;;;;;;;13.75;5.10;;;;;;;;;;6245315;22;20091;-41
2024/01/18 02:29:13;;;;;;;15.60;4.90;;;;;;;;;;6272807;22;20026;-41
2024/01/18 02:31:42;;;;;;;13.23;4.82;;;;;;;;;;6250615;22;20019;-41
2024/01/18 02:34:10;;;;;;;14.48;4.80;;;;;;;;;;6225091;22;20808;-41
2024/01/18 02:36:38;;;;;;;13.03;5.07;;;;;;;;;;6264406;22;20218;-42
2024/01/18 02:39:06;;;;;;;13.88;4.78;;;;;;;;;;6268235;22;20047;-41
2024/01/18 02:41:34;;;;;;;15.32;5.35;;;;;;;;;;6267913;22;20062;-41
2024/01/18 02:44:03;;;;;;;11.68;4.65;;;;;;;;;;6261754;22;20030;-41
2024/01/18 02:46:31;;;;;;;13.68;5.03;;;;;;;;;;6248999;22;20012;-42
2024/01/18 02:48:59;;;;;;;11.87;4.33;;;;;;;;;;6275450;22;20022;-42
2024/01/18 02:51:27;;;;;;;13.55;5.43;;;;;;;;;;6252177;22;20454;-43
2024/01/18 02:53:54;;;;;;;13.68;4.90;;;;;;;;;;6269979;22;20019;-41
2024/01/18 02:56:23;;;;;;;14.80;4.93;;;;;;;;;;6273198;22;20106;-43
2024/01/18 02:58:50;;;;;;;13.90;4.50;;;;;;;;;;6271509;22;20086;-43
2024/01/18 03:01:20;;;;;;;15.40;5.10;;;;;;;;;;6260793;22;20376;-41
2024/01/18 03:03:48;;;;;;;10.55;3.75;;;;;;;;;;6248500;22;20045;-41
2024/01/18 03:06:21;;;;;;;12.65;4.75;;;;;;;;;;6285502;22;20015;-42
2024/01/18 03:08:49;;;;;;;14.15;4.70;;;;;;;;;;6280275;22;20019;-41
2024/01/18 03:11:17;;;;;;;11.18;4.25;;;;;;;;;;6223305;22;20257;-42
2024/01/18 03:13:45;;;;;;;13.17;4.30;;;;;;;;;;6268467;22;20019;-42
2024/01/18 03:16:15;;;;;;;12.02;4.25;;;;;;;;;;6267534;22;20443;-43
2024/01/18 03:18:46;;;;;;;10.43;4.18;;;;;;;;;;6240038;22;20061;-42
2024/01/18 03:21:14;;;;;;;13.45;4.43;;;;;;;;;;6274987;22;20430;-41
2024/01/18 03:23:42;;;;;;;13.25;4.63;;;;;;;;;;6274352;22;20066;-41
2024/01/18 03:26:12;;;;;;;11.27;3.83;;;;;;;;;;6267023;22;20027;-41
2024/01/18 03:28:39;;;;;;;10.35;4.22;;;;;;;;;;6225468;22;20409;-41
2024/01/18 03:31:12;;;;;;;13.50;4.05;;;;;;;;;;6268845;22;20023;-41
2024/01/18 03:33:40;;;;;;;12.30;4.15;;;;;;;;;;6267208;22;20756;-41
2024/01/18 03:36:10;;;;;;;12.55;3.95;;;;;;;;;;6260794;22;20061;-41
2024/01/18 03:38:38;;;;;;;10.67;4.07;;;;;;;;;;6267679;22;20444;-40
2024/01/18 03:41:05;;;;;;;13.52;4.53;;;;;;;;;;6275438;22;20011;-41
2024/01/18 03:43:33;;;;;;;10.38;3.83;;;;;;;;;;6268803;22;20019;-42
2024/01/18 03:46:01;;;;;;;12.45;4.22;;;;;;;;;;6270005;22;20081;-40
2024/01/18 03:48:28;;;;;;;12.45;4.43;;;;;;;;;;6263153;22;20019;-41
2024/01/18 03:50:58;;;;;;;13.77;4.77;;;;;;;;;;6261675;22;20019;-41
2024/01/18 03:53:27;;;;;;;12.63;4.75;;;;;;;;;;6275862;22;20038;-41
2024/01/18 03:55:55;;;;;;;11.23;3.97;;;;;;;;;;6272882;22;20543;-41
2024/01/18 03:58:23;;;;;;;11.88;4.90;;;;;;;;;;6256899;22;20027;-42
2024/01/18 04:00:51;;;;;;;11.35;4.00;;;;;;;;;;6270415;22;20205;-41
2024/01/18 04:03:20;;;;;;;11.33;4.53;;;;;;;;;;6274113;22;20015;-41
2024/01/18 04:05:48;;;;;;;12.93;4.72;;;;;;;;;;6267067;22;20019;-42
2024/01/18 04:08:16;;;;;;;12.45;4.40;;;;;;;;;;6244463;22;20041;-41
2024/01/18 04:10:46;;;;;;;13.35;4.75;;;;;;;;;;6241749;22;20023;-43
2024/01/18 04:13:15;;;;;;;13.50;4.50;;;;;;;;;;6270273;22;20026;-41
2024/01/18 04:15:47;;;;;;;17.30;5.20;;;;;;;;;;6264521;22;20512;-41
2024/01/18 04:18:15;;;;;;;15.52;4.60;;;;;;;;;;6275670;22;20277;-41
2024/01/18 04:20:43;;;;;;;13.90;4.88;;;;;;;;;;6265827;22;20466;-41
2024/01/18 04:23:11;;;;;;;13.05;4.90;;;;;;;;;;6272318;22;20015;-41
2024/01/18 04:25:39;;;;;;;13.32;4.75;;;;;;;;;;6268647;22;20449;-41
2024/01/18 04:28:08;;;;;;;14.17;5.07;;;;;;;;;;6245263;22;20015;-41
2024/01/18 04:30:36;;;;;;;14.20;4.90;;;;;;;;;;6273749;22;20392;-41
2024/01/18 04:33:04;;;;;;;13.52;4.82;;;;;;;;;;6188234;22;20692;-41
2024/01/18 04:35:32;;;;;;;12.27;4.57;;;;;;;;;;6272842;22;20015;-41
2024/01/18 04:38:00;;;;;;;13.50;5.35;;;;;;;;;;6269807;22;20076;-41
2024/01/18 04:40:28;;;;;;;14.23;5.90;;;;;;;;;;6241675;22;20035;-40
2024/01/18 04:42:56;;;;;;;15.38;6.07;;;;;;;;;;6274490;22;20437;-41
2024/01/18 04:45:25;;;;;;;15.80;6.25;;;;;;;;;;6268800;22;20019;-41
2024/01/18 04:47:54;;;;;;;15.10;5.95;;;;;;;;;;6278798;22;20019;-41
2024/01/18 04:50:24;;;;;;;16.05;6.63;;;;;;;;;;6249543;22;20023;-42
2024/01/18 04:52:52;;;;;;;14.53;5.67;;;;;;;;;;6255940;22;20015;-41
2024/01/18 04:55:20;;;;;;;14.85;6.30;;;;;;;;;;6277869;22;20015;-41
2024/01/18 04:57:48;;;;;;;14.60;5.93;;;;;;;;;;6265289;22;20022;-40
2024/01/18 05:00:16;;;;;;;12.13;6.10;;;;;;;;;;6223400;22;20016;-40
2024/01/18 05:02:45;;;;;;;13.02;5.97;;;;;;;;;;6205767;22;20542;-41
2024/01/18 05:05:13;;;;;;;13.87;6.00;;;;;;;;;;6237774;22;20020;-41
2024/01/18 05:07:43;;;;;;;12.05;6.00;;;;;;;;;;6250776;22;20394;-41
2024/01/18 05:10:13;;;;;;;14.63;5.93;;;;;;;;;;6215810;22;20462;-41
2024/01/18 05:12:41;;;;;;;15.52;6.65;;;;;;;;;;6238913;22;20016;-41
2024/01/18 05:15:09;;;;;;;15.85;7.18;;;;;;;;;;6247629;22;20016;-41
2024/01/18 05:17:37;;;;;;;18.00;6.67;;;;;;;;;;6234907;22;20249;-42
2024/01/18 05:20:07;;;;;;;18.13;7.15;;;;;;;;;;6239673;22;20065;-41
2024/01/18 05:22:35;;;;;;;13.00;6.30;;;;;;;;;;6221017;22;20012;-42
2024/01/18 05:25:03;;;;;;;14.70;7.45;;;;;;;;;;6244313;22;20407;-41
2024/01/18 05:27:31;;;;;;;24.33;12.00;;;;;;;;;;6224748;22;20097;-41
2024/01/18 05:29:59;;;;;;;25.97;13.83;;;;;;;;;;6232925;22;20511;-41
2024/01/18 05:32:27;;;;;;;25.58;13.32;;;;;;;;;;6234778;22;20049;-41
2024/01/18 05:34:55;;;;;;;21.42;12.25;;;;;;;;;;6241535;22;20050;-40
2024/01/18 05:37:24;;;;;;;20.88;10.35;;;;;;;;;;6220640;22;20030;-41
2024/01/18 05:39:52;;;;;;;17.63;9.00;;;;;;;;;;6235156;22;20012;-41
2024/01/18 05:42:20;;;;;;;14.70;7.50;;;;;;;;;;6241484;22;20073;-40
2024/01/18 05:44:48;;;;;;;16.23;8.60;;;;;;;;;;6252694;22;20019;-41
2024/01/18 05:47:16;;;;;;;16.17;7.63;;;;;;;;;;6226397;22;20053;-41
2024/01/18 05:49:44;;;;;;;16.40;7.07;;;;;;;;;;6199555;22;20015;-41
2024/01/18 05:52:12;;;;;;;14.90;7.40;;;;;;;;;;6230314;22;20019;-41
2024/01/18 05:54:41;;;;;;;18.03;7.43;;;;;;;;;;6199183;22;20437;-41
2024/01/18 05:57:09;;;;;;;15.23;6.88;;;;;;;;;;6214880;22;20462;-41
2024/01/18 05:59:37;;;;;;;19.05;7.30;;;;;;;;;;6230201;22;20361;-41
2024/01/18 06:02:05;;;;;;;15.00;6.20;;;;;;;;;;6263783;22;20447;-41
2024/01/18 06:04:32;;;;;;;17.65;7.55;;;;;;;;;;6255727;22;20022;-41
2024/01/18 06:07:01;;;;;;;15.77;7.00;;;;;;;;;;6263921;22;20026;-42
2024/01/18 06:09:29;;;;;;;15.73;7.13;;;;;;;;;;6262862;22;20092;-42
2024/01/18 06:11:58;;;;;;;30.45;11.73;;;;;;;;;;6234811;22;20468;-41
2024/01/18 06:14:26;;;;;;;38.03;15.10;;;;;;;;;;6225822;22;20034;-41
2024/01/18 06:16:53;;;;;;;36.05;13.60;;;;;;;;;;6255650;22;20407;-43
2024/01/18 06:19:39;;;;;;;38.97;16.57;;;;;;;;;;6268494;22;20019;-41
2024/01/18 06:22:07;;;;;;;33.28;13.57;;;;;;;;;;6261815;22;20019;-41
2024/01/18 06:24:35;;;;;;;29.83;13.20;;;;;;;;;;6255015;22;20031;-41
2024/01/18 06:27:04;;;;;;;23.00;8.15;;;;;;;;;;6249661;22;20438;-42
2024/01/18 06:29:32;;;;;;;22.73;7.57;;;;;;;;;;6255863;22;20030;-41
2024/01/18 06:32:00;;;;;;;20.60;8.10;;;;;;;;;;6260139;22;20019;-41
2024/01/18 06:34:31;;;;;;;19.42;7.95;;;;;;;;;;6265645;22;20382;-41
2024/01/18 06:36:59;;;;;;;21.67;8.30;;;;;;;;;;6266471;22;20467;-41
2024/01/18 06:39:26;;;;;;;21.13;8.57;;;;;;;;;;6262422;22;20030;-41
2024/01/18 06:41:54;;;;;;;17.55;8.45;;;;;;;;;;6268641;22;20091;-41
2024/01/18 06:44:23;;;;;;;22.33;8.93;;;;;;;;;;6273385;22;20011;-41
2024/01/18 06:46:51;;;;;;;18.42;8.57;;;;;;;;;;6251489;22;20077;-44
2024/01/18 06:49:21;;;;;;;17.70;7.25;;;;;;;;;;6264752;22;20407;-42
2024/01/18 06:52:08;;;;;;;17.40;7.75;;;;;;;;;;6270650;22;20023;-43
2024/01/18 06:54:36;;;;;;;20.52;8.20;;;;;;;;;;6261901;22;20019;-41
2024/01/18 06:57:04;;;;;;;18.27;8.30;;;;;;;;;;6220224;22;20023;-41
2024/01/18 06:59:33;;;;;;;16.38;8.20;;;;;;;;;;6256671;22;20429;-41
2024/01/18 07:02:01;;;;;;;20.77;9.43;;;;;;;;;;6261961;22;20082;-45
2024/01/18 07:04:28;;;;;;;23.90;8.48;;;;;;;;;;6256106;22;20442;-41
2024/01/18 07:06:56;;;;;;;21.25;9.32;;;;;;;;;;6270539;22;20102;-41
2024/01/18 07:09:28;;;;;;;24.93;10.00;;;;;;;;;;6270799;22;20023;-40
2024/01/18 07:11:56;;;;;;;22.80;9.13;;;;;;;;;;6267154;22;20259;-41
2024/01/18 07:14:24;;;;;;;22.45;9.50;;;;;;;;;;6268296;22;20022;-43
2024/01/18 07:16:53;;;;;;;26.95;11.48;;;;;;;;;;6262986;22;20208;-41
2024/01/18 07:19:21;;;;;;;26.33;10.93;;;;;;;;;;6269182;22;20015;-43
2024/01/18 07:21:50;;;;;;;25.67;11.33;;;;;;;;;;6267177;22;20126;-41
2024/01/18 07:24:18;;;;;;;21.40;10.27;;;;;;;;;;6259723;22;20074;-43
2024/01/18 07:26:46;;;;;;;23.95;10.05;;;;;;;;;;6254701;22;20577;-44
2024/01/18 07:29:14;;;;;;;20.90;9.75;;;;;;;;;;6260732;22;20058;-44
2024/01/18 07:31:41;;;;;;;20.45;10.43;;;;;;;;;;6255132;22;20011;-41
2024/01/18 07:34:16;;;;;;;21.23;10.00;;;;;;;;;;6261803;22;20031;-41
2024/01/18 07:36:44;;;;;;;24.13;10.25;;;;;;;;;;6260653;22;20023;-41
2024/01/18 07:39:12;;;;;;;18.08;9.55;;;;;;;;;;6224140;22;20015;-41
2024/01/18 07:41:40;;;;;;;20.13;9.20;;;;;;;;;;6265190;22;20068;-41
2024/01/18 07:44:09;;;;;;;23.10;9.98;;;;;;;;;;6253015;22;20029;-41
2024/01/18 07:46:37;;;;;;;21.40;9.80;;;;;;;;;;6270720;22;20790;-40
2024/01/18 07:49:05;;;;;;;21.13;9.25;;;;;;;;;;6228147;22;20019;-41
2024/01/18 07:51:34;;;;;;;18.83;8.88;;;;;;;;;;6276302;22;20015;-41
2024/01/18 07:54:03;;;;;;;19.92;9.30;;;;;;;;;;6249860;22;20094;-41
2024/01/18 07:56:31;;;;;;;18.55;9.02;;;;;;;;;;6271140;22;20016;-38
2024/01/18 07:58:59;;;;;;;19.93;8.60;;;;;;;;;;6256183;22;20011;-41
2024/01/18 08:01:28;;;;;;;20.40;9.07;;;;;;;;;;6266547;22;20023;-41
2024/01/18 08:04:00;;;;;;;20.02;8.98;;;;;;;;;;6250352;22;20419;-40
2024/01/18 08:06:29;;;;;;;25.45;9.60;;;;;;;;;;6269087;22;20011;-40
2024/01/18 08:08:58;;;;;;;24.17;9.68;;;;;;;;;;6255981;22;20316;-41
2024/01/18 08:11:26;;;;;;;21.93;10.13;;;;;;;;;;6241288;22;20033;-41
2024/01/18 08:13:54;;;;;;;19.75;9.05;;;;;;;;;;6250439;22;20015;-40
2024/01/18 08:16:22;;;;;;;24.10;9.15;;;;;;;;;;6243774;22;20015;-40
2024/01/18 08:18:57;;;;;;;23.23;9.23;;;;;;;;;;6262863;22;20045;-40
2024/01/18 08:21:25;;;;;;;20.15;8.80;;;;;;;;;;6265905;22;20145;-40
2024/01/18 08:23:53;;;;;;;20.40;9.90;;;;;;;;;;6236540;22;20020;-41
2024/01/18 08:26:22;;;;;;;20.15;9.82;;;;;;;;;;6221769;22;20358;-40
2024/01/18 08:28:50;;;;;;;19.58;9.43;;;;;;;;;;6218500;22;20465;-40
2024/01/18 08:31:18;;;;;;;22.70;9.27;;;;;;;;;;6243393;22;20671;-40
2024/01/18 08:33:46;;;;;;;21.10;8.77;;;;;;;;;;6248222;22;20730;-43
2024/01/18 08:36:14;;;;;;;29.17;11.07;;;;;;;;;;6245407;22;20086;-40
2024/01/18 08:38:42;;;;;;;36.85;15.88;;;;;;;;;;6258031;22;20535;-40
2024/01/18 08:41:10;;;;;;;23.85;11.50;;;;;;;;;;6217156;22;20042;-40
2024/01/18 08:43:39;;;;;;;18.08;8.52;;;;;;;;;;6247576;22;20561;-40
2024/01/18 08:46:07;;;;;;;18.35;7.75;;;;;;;;;;6239625;22;20842;-42
2024/01/18 08:48:35;;;;;;;16.90;6.93;;;;;;;;;;6222405;22;20456;-41
2024/01/18 08:51:04;;;;;;;16.20;6.38;;;;;;;;;;6217611;22;20088;-42
2024/01/18 08:53:32;;;;;;;14.57;6.30;;;;;;;;;;6217581;22;20031;-40
2024/01/18 08:55:59;;;;;;;14.13;5.82;;;;;;;;;;6238745;22;20016;-40
2024/01/18 08:58:27;;;;;;;15.02;5.65;;;;;;;;;;6258777;22;20030;-40
2024/01/18 09:00:56;;;;;;;16.50;6.67;;;;;;;;;;6213356;22;20933;-40
2024/01/18 09:03:24;;;;;;;21.42;8.77;;;;;;;;;;6220293;22;20023;-41
2024/01/18 09:05:52;;;;;;;20.83;9.15;;;;;;;;;;6211766;22;20011;-42
2024/01/18 09:08:20;;;;;;;18.10;7.55;;;;;;;;;;6256476;22;20015;-41
2024/01/18 09:10:49;;;;;;;18.98;7.93;;;;;;;;;;6232587;22;20023;-42
2024/01/18 09:13:17;;;;;;;12.57;5.00;;;;;;;;;;6246848;22;20030;-42
2024/01/18 09:15:51;;;;;;;13.15;5.28;;;;;;;;;;6218581;22;20134;-41
2024/01/18 09:18:25;;;;;;;12.85;4.88;;;;;;;;;;6248893;22;20138;-40
2024/01/18 09:20:52;;;;;;;13.50;5.18;;;;;;;;;;6247094;22;20018;-41
2024/01/18 09:23:20;;;;;;;10.80;4.15;;;;;;;;;;6233409;22;20442;-41
2024/01/18 09:25:48;;;;;;;14.80;4.47;;;;;;;;;;6237145;22;20027;-41
2024/01/18 09:28:17;;;;;;;15.85;5.13;;;;;;;;;;6221244;22;20104;-38
2024/01/18 09:30:45;;;;;;;12.18;5.28;;;;;;;;;;6214738;22;20023;-41
2024/01/18 09:33:13;;;;;;;12.27;5.30;;;;;;;;;;6244829;22;20541;-40
2024/01/18 09:35:42;;;;;;;11.48;4.57;;;;;;;;;;6235167;22;20020;-41
2024/01/18 09:38:10;;;;;;;11.70;3.37;;;;;;;;;;6244238;22;20022;-40
2024/01/18 09:40:40;;;;;;;13.15;5.07;;;;;;;;;;6235986;22;20843;-40
2024/01/18 09:43:09;;;;;;;12.48;3.97;;;;;;;;;;6245145;22;20023;-40
2024/01/18 09:45:39;;;;;;;10.40;4.28;;;;;;;;;;6233095;22;20034;-40
2024/01/18 09:48:08;;;;;;;11.50;4.38;;;;;;;;;;6242710;22;20406;-41
2024/01/18 09:50:40;;;;;;;9.87;3.40;;;;;;;;;;6244227;22;20023;-40
2024/01/18 09:53:27;;;;;;;9.70;3.50;;;;;;;;;;6241742;22;20007;-40
2024/01/18 09:56:01;;;;;;;10.20;3.17;;;;;;;;;;6248827;22;20600;-40
2024/01/18 09:58:29;;;;;;;7.80;2.65;;;;;;;;;;6205915;22;20039;-41
2024/01/18 10:00:58;;;;;;;8.65;3.20;;;;;;;;;;6238015;22;20015;-40
2024/01/18 10:03:27;;;;;;;11.23;3.70;;;;;;;;;;6227320;22;20019;-40
2024/01/18 10:05:54;;;;;;;9.43;3.00;;;;;;;;;;6248473;22;20039;-40
2024/01/18 10:08:22;;;;;;;9.85;2.75;;;;;;;;;;6252974;22;20047;-40
2024/01/18 10:10:52;;;;;;;8.73;3.05;;;;;;;;;;6227186;22;20016;-40
2024/01/18 10:13:19;;;;;;;8.38;3.40;;;;;;;;;;6268611;22;20134;-40
2024/01/18 10:15:47;;;;;;;10.27;3.37;;;;;;;;;;6252369;22;20019;-40
2024/01/18 10:18:19;;;;;;;9.55;3.38;;;;;;;;;;6254975;22;20019;-40
2024/01/18 10:20:47;;;;;;;8.55;3.38;;;;;;;;;;6276274;22;20692;-40
2024/01/18 10:23:16;;;;;;;8.27;2.65;;;;;;;;;;6264433;22;20026;-40
2024/01/18 10:25:45;;;;;;;8.45;2.75;;;;;;;;;;6265449;22;20204;-40
2024/01/18 10:28:15;;;;;;;7.23;2.07;;;;;;;;;;6251355;22;20015;-40
2024/01/18 10:30:43;;;;;;;9.10;2.60;;;;;;;;;;6272761;22;20331;-40
2024/01/18 10:33:12;;;;;;;11.95;3.17;;;;;;;;;;6261228;22;20015;-40
2024/01/18 10:35:40;;;;;;;8.02;2.10;;;;;;;;;;6268269;22;20019;-40
2024/01/18 10:38:07;;;;;;;11.55;2.90;;;;;;;;;;6268471;22;20019;-40
2024/01/18 10:40:36;;;;;;;10.93;2.10;;;;;;;;;;6266477;22;20019;-41
2024/01/18 10:43:05;;;;;;;10.43;2.58;;;;;;;;;;6249989;22;20020;-40
2024/01/18 10:45:34;;;;;;;8.32;3.00;;;;;;;;;;6268659;22;20056;-40
2024/01/18 10:48:02;;;;;;;8.75;2.65;;;;;;;;;;6270219;22;20073;-41
2024/01/18 10:50:34;;;;;;;8.07;2.85;;;;;;;;;;6265379;22;20068;-40
2024/01/18 10:53:02;;;;;;;8.37;2.83;;;;;;;;;;6255725;22;20030;-40
2024/01/18 10:55:29;;;;;;;6.15;1.88;;;;;;;;;;6247179;22;20046;-40
2024/01/18 10:57:58;;;;;;;6.20;2.10;;;;;;;;;;6260246;22;20019;-40
2024/01/18 11:00:26;;;;;;;8.40;1.98;;;;;;;;;;6262963;22;20080;-40
2024/01/18 11:02:57;;;;;;;8.50;2.85;;;;;;;;;;6228386;22;20015;-40
2024/01/18 11:05:27;;;;;;;7.67;2.27;;;;;;;;;;6267310;22;20062;-41
2024/01/18 11:07:55;;;;;;;10.07;2.45;;;;;;;;;;6241000;22;20019;-41
2024/01/18 11:10:23;;;;;;;7.80;2.40;;;;;;;;;;6261825;22;20019;-40
2024/01/18 11:12:52;;;;;;;7.72;2.08;;;;;;;;;;6269871;22;20026;-42
2024/01/18 11:15:20;;;;;;;8.32;2.38;;;;;;;;;;6236588;22;20029;-40
2024/01/18 11:17:50;;;;;;;7.60;2.03;;;;;;;;;;6266459;22;20019;-41
2024/01/18 11:20:20;;;;;;;5.55;1.25;;;;;;;;;;6231880;22;20016;-41
2024/01/18 11:22:50;;;;;;;7.45;2.22;;;;;;;;;;6259433;22;20015;-41
2024/01/18 11:25:20;;;;;;;5.85;1.00;;;;;;;;;;6249913;22;20023;-40
2024/01/18 11:27:47;;;;;;;4.10;1.17;;;;;;;;;;6229939;22;20807;-40
2024/01/18 11:30:34;;;;;;;9.03;1.83;;;;;;;;;;6262700;22;20019;-40
2024/01/18 11:33:03;;;;;;;7.10;2.15;;;;;;;;;;6243587;22;20019;-40
2024/01/18 11:35:34;;;;;;;8.63;2.20;;;;;;;;;;6254300;22;20019;-39
2024/01/18 11:38:16;;;;;;;6.30;1.95;;;;;;;;;;6259797;22;20015;-39
2024/01/18 11:40:44;;;;;;;5.47;1.30;;;;;;;;;;6253813;22;20076;-39
2024/01/18 11:43:12;;;;;;;9.37;2.30;;;;;;;;;;6244000;22;20023;-40
2024/01/18 11:45:40;;;;;;;5.47;1.23;;;;;;;;;;6258880;22;20022;-39
2024/01/18 11:48:08;;;;;;;5.18;1.00;;;;;;;;;;6204097;22;20088;-40
2024/01/18 11:50:38;;;;;;;7.28;1.63;;;;;;;;;;6232774;22;20452;-41
2024/01/18 11:53:08;;;;;;;7.13;1.52;;;;;;;;;;6238550;22;20019;-39
2024/01/18 11:55:38;;;;;;;6.40;1.67;;;;;;;;;;6211649;22;20015;-41
2024/01/18 11:58:08;;;;;;;7.03;2.30;;;;;;;;;;6242993;22;20026;-40
2024/01/18 12:00:36;;;;;;;7.18;1.77;;;;;;;;;;6244073;22;20015;-39
2024/01/18 12:03:07;;;;;;;6.30;1.25;;;;;;;;;;6252176;22;20089;-41
2024/01/18 12:05:35;;;;;;;8.35;2.45;;;;;;;;;;6241864;22;20476;-42
2024/01/18 12:08:06;;;;;;;4.87;1.47;;;;;;;;;;6214940;22;20096;-44
2024/01/18 12:10:34;;;;;;;7.20;1.48;;;;;;;;;;6237347;22;20402;-44
2024/01/18 12:13:02;;;;;;;13.23;1.63;;;;;;;;;;6257310;22;20342;-41
2024/01/18 12:15:31;;;;;;;4.70;1.02;;;;;;;;;;6249796;22;20214;-44
2024/01/18 12:18:01;;;;;;;6.35;1.33;;;;;;;;;;6249307;22;20016;-40
2024/01/18 12:20:29;;;;;;;4.80;1.00;;;;;;;;;;6252122;22;20047;-39
2024/01/18 12:22:57;;;;;;;7.30;1.70;;;;;;;;;;6241864;22;20038;-39
2024/01/18 12:25:30;;;;;;;6.38;1.38;;;;;;;;;;6237849;22;20038;-39
2024/01/18 12:27:58;;;;;;;5.05;0.90;;;;;;;;;;6223957;22;20039;-39
2024/01/18 12:30:25;;;;;;;5.65;1.20;;;;;;;;;;6199813;22;20458;-38
2024/01/18 12:32:55;;;;;;;4.57;0.73;;;;;;;;;;6245672;22;20026;-40
2024/01/18 12:35:23;;;;;;;7.53;1.02;;;;;;;;;;6252919;22;20046;-39
2024/01/18 12:37:52;;;;;;;5.32;0.95;;;;;;;;;;6212635;22;20064;-39
2024/01/18 12:40:20;;;;;;;4.97;0.80;;;;;;;;;;6252001;22;20015;-39
2024/01/18 12:42:52;;;;;;;4.70;0.73;;;;;;;;;;6249576;22;20025;-40
2024/01/18 12:45:21;;;;;;;5.43;0.90;;;;;;;;;;6248080;22;20421;-39
2024/01/18 12:47:49;;;;;;;8.15;0.93;;;;;;;;;;6206785;22;20458;-39
2024/01/18 12:50:17;;;;;;;6.75;0.60;;;;;;;;;;6248038;22;20020;-39
2024/01/18 12:52:45;;;;;;;4.20;0.68;;;;;;;;;;6244777;22;20098;-40
2024/01/18 12:55:13;;;;;;;5.75;0.50;;;;;;;;;;6245524;22;20072;-39
2024/01/18 12:57:41;;;;;;;3.73;0.47;;;;;;;;;;6239175;22;20026;-39
2024/01/18 13:00:12;;;;;;;4.82;0.93;;;;;;;;;;6243255;22;20015;-39
2024/01/18 13:02:41;;;;;;;4.22;0.88;;;;;;;;;;6236125;22;20019;-39
2024/01/18 13:05:13;;;;;;;5.47;0.95;;;;;;;;;;6247603;22;20445;-39
2024/01/18 13:07:41;;;;;;;4.47;0.75;;;;;;;;;;6238108;22;20023;-40
2024/01/18 13:10:12;;;;;;;5.33;0.63;;;;;;;;;;6251884;22;20015;-39
2024/01/18 13:12:45;;;;;;;5.40;0.85;;;;;;;;;;6249823;22;20107;-40
2024/01/18 13:15:15;;;;;;;4.22;1.05;;;;;;;;;;6241686;22;20275;-41
2024/01/18 13:17:48;;;;;;;5.03;0.70;;;;;;;;;;6245275;22;20026;-40
2024/01/18 13:20:16;;;;;;;4.57;0.90;;;;;;;;;;6243573;22;20378;-40
2024/01/18 13:22:45;;;;;;;5.60;1.07;;;;;;;;;;6241705;22;20194;-40
2024/01/18 13:25:12;;;;;;;5.95;1.40;;;;;;;;;;6239010;22;20015;-41
2024/01/18 13:27:42;;;;;;;4.32;0.88;;;;;;;;;;6201563;22;20019;-40
2024/01/18 13:30:11;;;;;;;4.75;1.23;;;;;;;;;;6250833;22;20015;-41
2024/01/18 13:32:41;;;;;;;8.13;1.88;;;;;;;;;;6243462;22;20117;-40
2024/01/18 13:35:09;;;;;;;8.13;1.90;;;;;;;;;;6255999;22;20019;-40
2024/01/18 13:37:36;;;;;;;6.57;2.42;;;;;;;;;;6244699;22;20337;-42
2024/01/18 13:40:08;;;;;;;5.82;1.30;;;;;;;;;;6244135;22;20816;-40
2024/01/18 13:42:36;;;;;;;6.70;1.50;;;;;;;;;;6213480;22;20015;-41
2024/01/18 13:45:08;;;;;;;8.82;1.70;;;;;;;;;;6258964;22;20019;-43
2024/01/18 13:47:36;;;;;;;5.80;1.47;;;;;;;;;;6236331;22;20022;-41
2024/01/18 13:50:06;;;;;;;4.57;1.10;;;;;;;;;;6250943;22;20592;-41
2024/01/18 13:52:34;;;;;;;6.75;1.75;;;;;;;;;;6243653;22;20643;-41
2024/01/18 13:55:03;;;;;;;6.43;1.15;;;;;;;;;;6223963;22;20586;-43
2024/01/18 13:57:31;;;;;;;5.55;1.45;;;;;;;;;;6243041;22;20308;-40
2024/01/18 13:59:58;;;;;;;10.27;2.40;;;;;;;;;;6249781;22;20098;-41
2024/01/18 14:02:26;;;;;;;5.38;1.50;;;;;;;;;;6229241;22;20497;-42
2024/01/18 14:04:54;;;;;;;10.20;2.55;;;;;;;;;;6241025;22;20041;-41
2024/01/18 14:07:24;;;;;;;10.95;3.00;;;;;;;;;;6234730;22;20403;-41
2024/01/18 14:09:52;;;;;;;14.63;3.65;;;;;;;;;;6253247;22;20022;-41
2024/01/18 14:12:20;;;;;;;12.60;2.57;;;;;;;;;;6233081;22;20339;-41
2024/01/18 14:14:48;;;;;;;11.38;2.75;;;;;;;;;;6253083;22;20019;-41
2024/01/18 14:17:23;;;;;;;11.85;2.45;;;;;;;;;;6245379;22;20039;-41
2024/01/18 14:19:52;;;;;;;5.65;1.33;;;;;;;;;;6236724;22;20016;-41
2024/01/18 14:22:20;;;;;;;6.53;1.30;;;;;;;;;;6225220;22;20034;-41
2024/01/18 14:24:49;;;;;;;6.43;1.10;;;;;;;;;;6236814;22;20014;-42
2024/01/18 14:27:17;;;;;;;7.28;1.00;;;;;;;;;;6242892;22;20094;-42
2024/01/18 14:29:46;;;;;;;5.07;1.40;;;;;;;;;;6232968;22;20015;-41
2024/01/18 14:32:14;;;;;;;4.00;0.88;;;;;;;;;;6223079;22;20019;-41
2024/01/18 14:34:42;;;;;;;4.95;0.80;;;;;;;;;;6231280;22;20019;-40
2024/01/18 14:37:10;;;;;;;3.97;0.60;;;;;;;;;;6250635;22;20019;-40
2024/01/18 14:39:37;;;;;;;5.57;1.33;;;;;;;;;;6233911;22;20410;-41
2024/01/18 14:42:07;;;;;;;4.93;0.85;;;;;;;;;;6265030;22;20548;-42